sensor_id;sensor_type;location;lat;lon;timestamp;pressure;altitude;pressure_sealevel;temperature;humidity
50380;BME280;37474;59.468;18.040;2022-07-23T00:00:05;100871.94;;;16.38;100.00
50380;BME280;37474;59.468;18.040;2022-07-23T00:02:39;100875.09;;;16.21;100.00
50380;BME280;37474;59.468;18.040;2022-07-23T00:05:07;100880.50;;;16.08;100.00
50380;BME280;37474;59.468;18.040;2022-07-23T00:07:36;100875.81;;;16.12;100.00
50380;BME280;37474;59.468;18.040;2022-07-23T00:10:08;100882.56;;;16.05;100.00
50380;BME280;37474;59.468;18.040;2022-07-23T00:12:36;100879.06;;;16.15;100.00
50380;BME280;37474;59.468;18.040;2022-07-23T00:15:19;100881.94;;;16.12;100.00
50380;BME280;37474;59.468;18.040;2022-07-23T00:17:50;100881.59;;;16.06;100.00
50380;BME280;37474;59.468;18.040;2022-07-23T00:20:18;100884.34;;;15.93;100.00
50380;BME280;37474;59.468;18.040;2022-07-23T00:22:49;100884.09;;;15.85;100.00
50380;BME280;37474;59.468;18.040;2022-07-23T00:25:19;100884.47;;;15.91;100.00
50380;BME280;37474;59.468;18.040;2022-07-23T00:28:00;100884.59;;;15.79;100.00
50380;BME280;37474;59.468;18.040;2022-07-23T00:30:31;100883.25;;;15.62;100.00
50380;BME280;37474;59.468;18.040;2022-07-23T00:33:04;100884.44;;;15.69;100.00
50380;BME280;37474;59.468;18.040;2022-07-23T00:35:35;100891.97;;;15.51;100.00
50380;BME280;37474;59.468;18.040;2022-07-23T00:38:04;100891.72;;;15.43;100.00
50380;BME280;37474;59.468;18.040;2022-07-23T00:40:35;100891.00;;;15.41;100.00
50380;BME280;37474;59.468;18.040;2022-07-23T00:43:05;100883.84;;;15.19;100.00
50380;BME280;37474;59.468;18.040;2022-07-23T00:45:33;100888.63;;;15.14;100.00
50380;BME280;37474;59.468;18.040;2022-07-23T00:48:05;100887.25;;;14.97;100.00
50380;BME280;37474;59.468;18.040;2022-07-23T00:50:33;100893.91;;;15.14;100.00
50380;BME280;37474;59.468;18.040;2022-07-23T00:53:01;100899.88;;;15.05;100.00
50380;BME280;37474;59.468;18.040;2022-07-23T00:55:31;100899.13;;;14.79;100.00
50380;BME280;37474;59.468;18.040;2022-07-23T00:58:02;100894.47;;;14.83;100.00
50380;BME280;37474;59.468;18.040;2022-07-23T01:00:30;100886.69;;;14.81;100.00
50380;BME280;37474;59.468;18.040;2022-07-23T01:03:00;100895.16;;;14.73;100.00
50380;BME280;37474;59.468;18.040;2022-07-23T01:05:31;100891.78;;;14.71;100.00
50380;BME280;37474;59.468;18.040;2022-07-23T01:08:00;100895.59;;;14.67;100.00
50380;BME280;37474;59.468;18.040;2022-07-23T01:10:28;100893.38;;;14.50;100.00
50380;BME280;37474;59.468;18.040;2022-07-23T01:13:03;100896.75;;;14.52;100.00
50380;BME280;37474;59.468;18.040;2022-07-23T01:15:35;100897.38;;;14.56;100.00
50380;BME280;37474;59.468;18.040;2022-07-23T01:18:06;100896.97;;;14.36;100.00
50380;BME280;37474;59.468;18.040;2022-07-23T01:20:38;100897.28;;;14.32;100.00
50380;BME280;37474;59.468;18.040;2022-07-23T01:23:07;100894.66;;;14.32;100.00
50380;BME280;37474;59.468;18.040;2022-07-23T01:25:35;100893.91;;;14.30;100.00
50380;BME280;37474;59.468;18.040;2022-07-23T01:28:05;100886.63;;;14.33;100.00
50380;BME280;37474;59.468;18.040;2022-07-23T01:30:35;100890.44;;;14.42;100.00
50380;BME280;37474;59.468;18.040;2022-07-23T01:33:03;100898.16;;;14.56;100.00
50380;BME280;37474;59.468;18.040;2022-07-23T01:35:33;100901.50;;;14.47;100.00
50380;BME280;37474;59.468;18.040;2022-07-23T01:38:03;100897.22;;;14.57;100.00
50380;BME280;37474;59.468;18.040;2022-07-23T01:40:32;100884.41;;;14.40;100.00
50380;BME280;37474;59.468;18.040;2022-07-23T01:43:03;100892.97;;;14.44;100.00
50380;BME280;37474;59.468;18.040;2022-07-23T01:45:34;100891.19;;;14.19;100.00
50380;BME280;37474;59.468;18.040;2022-07-23T01:48:04;100885.94;;;14.19;100.00
50380;BME280;37474;59.468;18.040;2022-07-23T01:50:36;100887.41;;;14.23;100.00
50380;BME280;37474;59.468;18.040;2022-07-23T01:53:08;100880.56;;;14.07;100.00
50380;BME280;37474;59.468;18.040;2022-07-23T01:55:37;100881.00;;;14.14;100.00
50380;BME280;37474;59.468;18.040;2022-07-23T01:58:05;100878.38;;;14.01;100.00
50380;BME280;37474;59.468;18.040;2022-07-23T02:00:37;100875.53;;;14.04;100.00
50380;BME280;37474;59.468;18.040;2022-07-23T02:03:07;100878.38;;;14.01;100.00
50380;BME280;37474;59.468;18.040;2022-07-23T02:05:36;100873.81;;;14.16;100.00
50380;BME280;37474;59.468;18.040;2022-07-23T02:08:06;100874.66;;;14.17;100.00
50380;BME280;37474;59.468;18.040;2022-07-23T02:10:37;100877.84;;;14.09;100.00
50380;BME280;37474;59.468;18.040;2022-07-23T02:13:05;100874.03;;;14.13;100.00
50380;BME280;37474;59.468;18.040;2022-07-23T02:15:33;100864.66;;;14.09;100.00
50380;BME280;37474;59.468;18.040;2022-07-23T02:18:03;100867.19;;;14.11;100.00
50380;BME280;37474;59.468;18.040;2022-07-23T02:20:31;100863.72;;;13.97;100.00
50380;BME280;37474;59.468;18.040;2022-07-23T02:23:02;100865.94;;;14.03;100.00
50380;BME280;37474;59.468;18.040;2022-07-23T02:25:32;100867.53;;;13.93;100.00
50380;BME280;37474;59.468;18.040;2022-07-23T02:28:02;100864.69;;;13.84;100.00
50380;BME280;37474;59.468;18.040;2022-07-23T02:30:32;100861.84;;;13.99;100.00
50380;BME280;37474;59.468;18.040;2022-07-23T02:33:02;100861.84;;;13.99;100.00
50380;BME280;37474;59.468;18.040;2022-07-23T02:35:30;100862.91;;;13.84;100.00
50380;BME280;37474;59.468;18.040;2022-07-23T02:37:59;100859.94;;;13.89;100.00
50380;BME280;37474;59.468;18.040;2022-07-23T02:40:29;100858.66;;;14.07;100.00
50380;BME280;37474;59.468;18.040;2022-07-23T02:42:57;100849.25;;;14.16;100.00
50380;BME280;37474;59.468;18.040;2022-07-23T02:45:26;100855.91;;;14.21;100.00
50380;BME280;37474;59.468;18.040;2022-07-23T02:47:56;100857.66;;;14.33;100.00
50380;BME280;37474;59.468;18.040;2022-07-23T02:50:24;100860.72;;;14.27;100.00
50380;BME280;37474;59.468;18.040;2022-07-23T02:52:54;100857.53;;;14.35;100.00
50380;BME280;37474;59.468;18.040;2022-07-23T02:55:25;100856.19;;;14.29;100.00
50380;BME280;37474;59.468;18.040;2022-07-23T02:57:53;100859.75;;;14.41;100.00
50380;BME280;37474;59.468;18.040;2022-07-23T03:00:22;100851.66;;;14.44;100.00
50380;BME280;37474;59.468;18.040;2022-07-23T03:02:53;100863.75;;;14.34;100.00
50380;BME280;37474;59.468;18.040;2022-07-23T03:05:21;100874.09;;;14.37;100.00
50380;BME280;37474;59.468;18.040;2022-07-23T03:07:51;100873.56;;;14.32;100.00
50380;BME280;37474;59.468;18.040;2022-07-23T03:10:19;100880.53;;;14.46;100.00
50380;BME280;37474;59.468;18.040;2022-07-23T03:12:47;100877.25;;;14.42;100.00
50380;BME280;37474;59.468;18.040;2022-07-23T03:15:17;100878.41;;;14.38;100.00
50380;BME280;37474;59.468;18.040;2022-07-23T03:17:45;100884.53;;;14.38;100.00
50380;BME280;37474;59.468;18.040;2022-07-23T03:20:16;100883.81;;;14.24;100.00
50380;BME280;37474;59.468;18.040;2022-07-23T03:22:46;100885.81;;;14.20;100.00
50380;BME280;37474;59.468;18.040;2022-07-23T03:25:14;100888.22;;;14.36;100.00
50380;BME280;37474;59.468;18.040;2022-07-23T03:27:43;100886.66;;;14.21;100.00
50380;BME280;37474;59.468;18.040;2022-07-23T03:30:14;100894.88;;;14.29;100.00
50380;BME280;37474;59.468;18.040;2022-07-23T03:32:42;100893.59;;;14.34;100.00
50380;BME280;37474;59.468;18.040;2022-07-23T03:35:12;100890.84;;;14.36;100.00
50380;BME280;37474;59.468;18.040;2022-07-23T03:37:44;100890.72;;;14.50;100.00
50380;BME280;37474;59.468;18.040;2022-07-23T03:40:14;100893.47;;;14.36;100.00
50380;BME280;37474;59.468;18.040;2022-07-23T03:42:42;100889.38;;;14.45;100.00
50380;BME280;37474;59.468;18.040;2022-07-23T03:45:14;100894.94;;;14.40;100.00
50380;BME280;37474;59.468;18.040;2022-07-23T03:47:44;100897.06;;;14.48;100.00
50380;BME280;37474;59.468;18.040;2022-07-23T03:50:12;100886.75;;;14.45;100.00
50380;BME280;37474;59.468;18.040;2022-07-23T03:52:39;100886.19;;;14.52;100.00
50380;BME280;37474;59.468;18.040;2022-07-23T03:55:11;100886.41;;;14.49;100.00
50380;BME280;37474;59.468;18.040;2022-07-23T03:57:39;100887.47;;;14.34;100.00
50380;BME280;37474;59.468;18.040;2022-07-23T04:00:09;100886.84;;;14.30;100.00
50380;BME280;37474;59.468;18.040;2022-07-23T04:02:40;100886.84;;;14.43;100.00
50380;BME280;37474;59.468;18.040;2022-07-23T04:05:10;100889.78;;;14.51;100.00
50380;BME280;37474;59.468;18.040;2022-07-23T04:07:38;100888.59;;;14.55;100.00
50380;BME280;37474;59.468;18.040;2022-07-23T04:10:10;100889.44;;;14.80;100.00
50380;BME280;37474;59.468;18.040;2022-07-23T04:12:40;100894.25;;;14.62;100.00
50380;BME280;37474;59.468;18.040;2022-07-23T04:15:08;100892.41;;;14.75;100.00
50380;BME280;37474;59.468;18.040;2022-07-23T04:17:38;100895.66;;;14.79;100.00
50380;BME280;37474;59.468;18.040;2022-07-23T04:20:09;100886.13;;;14.89;100.00
50380;BME280;37474;59.468;18.040;2022-07-23T04:22:37;100887.91;;;14.88;100.00
50380;BME280;37474;59.468;18.040;2022-07-23T04:25:08;100889.53;;;15.02;100.00
50380;BME280;37474;59.468;18.040;2022-07-23T04:27:39;100890.53;;;15.12;100.00
50380;BME280;37474;59.468;18.040;2022-07-23T04:30:08;100890.69;;;15.22;100.00
50380;BME280;37474;59.468;18.040;2022-07-23T04:32:38;100898.47;;;15.12;100.00
50380;BME280;37474;59.468;18.040;2022-07-23T04:35:08;100889.88;;;14.97;100.00
50380;BME280;37474;59.468;18.040;2022-07-23T04:37:36;100891.50;;;14.87;100.00
50380;BME280;37474;59.468;18.040;2022-07-23T04:40:07;100884.94;;;14.93;100.00
50380;BME280;37474;59.468;18.040;2022-07-23T04:42:40;100872.94;;;14.89;100.00
50380;BME280;37474;59.468;18.040;2022-07-23T04:45:10;100879.44;;;14.96;100.00
50380;BME280;37474;59.468;18.040;2022-07-23T04:47:39;100877.03;;;14.93;100.00
50380;BME280;37474;59.468;18.040;2022-07-23T04:50:07;100879.28;;;14.86;100.00
50380;BME280;37474;59.468;18.040;2022-07-23T04:52:37;100894.47;;;14.83;100.00
50380;BME280;37474;59.468;18.040;2022-07-23T04:55:06;100899.88;;;14.81;100.00
50380;BME280;37474;59.468;18.040;2022-07-23T04:57:36;100890.22;;;14.93;100.00
50380;BME280;37474;59.468;18.040;2022-07-23T05:00:08;100890.50;;;15.01;100.00
50380;BME280;37474;59.468;18.040;2022-07-23T05:02:36;100889.31;;;15.05;100.00
50380;BME280;37474;59.468;18.040;2022-07-23T05:05:05;100892.84;;;14.93;100.00
50380;BME280;37474;59.468;18.040;2022-07-23T05:07:37;100890.44;;;14.90;100.00
50380;BME280;37474;59.468;18.040;2022-07-23T05:10:08;100885.00;;;15.04;100.00
50380;BME280;37474;59.468;18.040;2022-07-23T05:12:36;100886.69;;;15.05;100.00
50380;BME280;37474;59.468;18.040;2022-07-23T05:15:07;100886.03;;;15.25;100.00
50380;BME280;37474;59.468;18.040;2022-07-23T05:17:37;100886.56;;;15.42;100.00
50380;BME280;37474;59.468;18.040;2022-07-23T05:20:06;100898.94;;;15.52;100.00
50380;BME280;37474;59.468;18.040;2022-07-23T05:22:36;100903.78;;;15.23;100.00
50380;BME280;37474;59.468;18.040;2022-07-23T05:25:08;100904.31;;;15.40;100.00
50380;BME280;37474;59.468;18.040;2022-07-23T05:27:39;100895.25;;;15.66;100.00
50380;BME280;37474;59.468;18.040;2022-07-23T05:30:09;100904.25;;;15.63;100.00
50380;BME280;37474;59.468;18.040;2022-07-23T05:32:41;100895.13;;;15.67;100.00
50380;BME280;37474;59.468;18.040;2022-07-23T05:35:09;100897.91;;;15.77;100.00
50380;BME280;37474;59.468;18.040;2022-07-23T05:37:37;100904.41;;;16.07;100.00
50380;BME280;37474;59.468;18.040;2022-07-23T05:40:12;100897.69;;;16.14;100.00
50380;BME280;37474;59.468;18.040;2022-07-23T05:42:40;100901.28;;;16.01;100.00
50380;BME280;37474;59.468;18.040;2022-07-23T05:45:11;100898.16;;;15.74;100.00
50380;BME280;37474;59.468;18.040;2022-07-23T05:47:43;100897.19;;;15.86;100.00
50380;BME280;37474;59.468;18.040;2022-07-23T05:50:12;100899.97;;;15.96;100.00
50380;BME280;37474;59.468;18.040;2022-07-23T05:52:42;100897.41;;;15.72;100.00
50380;BME280;37474;59.468;18.040;2022-07-23T05:55:12;100906.75;;;15.54;100.00
50380;BME280;37474;59.468;18.040;2022-07-23T05:57:41;100908.44;;;15.66;100.00
50380;BME280;37474;59.468;18.040;2022-07-23T06:00:13;100912.31;;;15.73;100.00
50380;BME280;37474;59.468;18.040;2022-07-23T06:02:43;100913.75;;;15.77;100.00
50380;BME280;37474;59.468;18.040;2022-07-23T06:05:11;100919.50;;;15.71;100.00
50380;BME280;37474;59.468;18.040;2022-07-23T06:07:43;100913.91;;;16.09;100.00
50380;BME280;37474;59.468;18.040;2022-07-23T06:10:13;100915.34;;;16.13;100.00
50380;BME280;37474;59.468;18.040;2022-07-23T06:12:41;100909.69;;;16.18;100.00
50380;BME280;37474;59.468;18.040;2022-07-23T06:15:12;100914.50;;;16.13;100.00
50380;BME280;37474;59.468;18.040;2022-07-23T06:17:42;100912.81;;;16.12;100.00
50380;BME280;37474;59.468;18.040;2022-07-23T06:20:11;100909.69;;;15.95;100.00
50380;BME280;37474;59.468;18.040;2022-07-23T06:22:41;100909.56;;;15.75;100.00
50380;BME280;37474;59.468;18.040;2022-07-23T06:25:10;100901.78;;;15.95;100.00
50380;BME280;37474;59.468;18.040;2022-07-23T06:27:47;100905.13;;;16.20;100.00
50380;BME280;37474;59.468;18.040;2022-07-23T06:30:19;100899.72;;;16.32;100.00
50380;BME280;37474;59.468;18.040;2022-07-23T06:32:52;100891.81;;;16.21;100.00
50380;BME280;37474;59.468;18.040;2022-07-23T06:35:22;100892.38;;;16.47;100.00
50380;BME280;37474;59.468;18.040;2022-07-23T06:37:50;100894.75;;;16.61;100.00
50380;BME280;37474;59.468;18.040;2022-07-23T06:40:18;100897.97;;;16.65;100.00
50380;BME280;37474;59.468;18.040;2022-07-23T06:42:46;100896.44;;;16.62;100.00
50380;BME280;37474;59.468;18.040;2022-07-23T06:45:14;100876.94;;;16.63;100.00
50380;BME280;37474;59.468;18.040;2022-07-23T06:47:44;100878.13;;;16.71;100.00
50380;BME280;37474;59.468;18.040;2022-07-23T06:50:12;100876.63;;;16.89;100.00
50380;BME280;37474;59.468;18.040;2022-07-23T06:52:39;100879.38;;;17.19;100.00
50380;BME280;37474;59.468;18.040;2022-07-23T06:55:10;100880.03;;;17.32;100.00
50380;BME280;37474;59.468;18.040;2022-07-23T06:57:41;100881.22;;;17.91;96.99
50380;BME280;37474;59.468;18.040;2022-07-23T07:00:10;100886.47;;;17.81;96.44
50380;BME280;37474;59.468;18.040;2022-07-23T07:02:40;100889.25;;;17.80;95.39
50380;BME280;37474;59.468;18.040;2022-07-23T07:05:12;100892.09;;;17.88;96.34
50380;BME280;37474;59.468;18.040;2022-07-23T07:07:39;100887.41;;;18.01;95.47
50380;BME280;37474;59.468;18.040;2022-07-23T07:10:09;100888.44;;;18.19;92.02
50380;BME280;37474;59.468;18.040;2022-07-23T07:12:41;100893.97;;;17.76;93.21
50380;BME280;37474;59.468;18.040;2022-07-23T07:15:12;100901.88;;;17.97;94.59
50380;BME280;37474;59.468;18.040;2022-07-23T07:17:39;100896.44;;;17.47;98.16
50380;BME280;37474;59.468;18.040;2022-07-23T07:20:12;100899.84;;;17.17;98.94
50380;BME280;37474;59.468;18.040;2022-07-23T07:22:40;100898.88;;;17.18;100.00
50380;BME280;37474;59.468;18.040;2022-07-23T07:25:08;100908.53;;;17.40;99.12
50380;BME280;37474;59.468;18.040;2022-07-23T07:27:36;100906.59;;;17.42;100.00
50380;BME280;37474;59.468;18.040;2022-07-23T07:30:08;100903.16;;;17.72;96.87
50380;BME280;37474;59.468;18.040;2022-07-23T07:32:36;100900.31;;;17.64;97.77
50380;BME280;37474;59.468;18.040;2022-07-23T07:35:25;100901.63;;;17.49;98.95
50380;BME280;37474;59.468;18.040;2022-07-23T07:37:53;100910.19;;;17.41;99.03
50380;BME280;37474;59.468;18.040;2022-07-23T07:40:21;100904.19;;;17.39;99.21
50380;BME280;37474;59.468;18.040;2022-07-23T07:42:52;100916.84;;;17.56;100.00
50380;BME280;37474;59.468;18.040;2022-07-23T07:45:21;100914.03;;;18.30;93.76
50380;BME280;37474;59.468;18.040;2022-07-23T07:47:52;100918.59;;;18.58;88.46
50380;BME280;37474;59.468;18.040;2022-07-23T07:50:20;100915.69;;;18.61;87.00
50380;BME280;37474;59.468;18.040;2022-07-23T07:52:49;100913.06;;;18.01;92.22
50380;BME280;37474;59.468;18.040;2022-07-23T07:55:21;100916.69;;;18.00;94.53
50380;BME280;37474;59.468;18.040;2022-07-23T07:57:49;100919.88;;;17.93;93.86
50380;BME280;37474;59.468;18.040;2022-07-23T08:00:18;100924.34;;;17.72;93.95
50380;BME280;37474;59.468;18.040;2022-07-23T08:02:47;100926.81;;;17.64;98.34
50380;BME280;37474;59.468;18.040;2022-07-23T08:05:19;100925.19;;;17.73;97.93
50380;BME280;37474;59.468;18.040;2022-07-23T08:07:55;100921.25;;;17.46;98.22
50380;BME280;37474;59.468;18.040;2022-07-23T08:10:23;100926.03;;;17.31;100.00
50380;BME280;37474;59.468;18.040;2022-07-23T08:12:53;100931.66;;;17.38;100.00
50380;BME280;37474;59.468;18.040;2022-07-23T08:15:24;100935.56;;;17.23;100.00
50380;BME280;37474;59.468;18.040;2022-07-23T08:17:53;100935.06;;;17.50;100.00
50380;BME280;37474;59.468;18.040;2022-07-23T08:20:22;100928.41;;;17.55;98.17
50380;BME280;37474;59.468;18.040;2022-07-23T08:22:56;100943.22;;;17.58;99.21
50380;BME280;37474;59.468;18.040;2022-07-23T08:25:28;100945.16;;;17.56;98.38
50380;BME280;37474;59.468;18.040;2022-07-23T08:27:59;100949.16;;;17.50;95.03
50380;BME280;37474;59.468;18.040;2022-07-23T08:30:30;100943.47;;;17.55;98.81
50380;BME280;37474;59.468;18.040;2022-07-23T08:33:00;100948.06;;;17.74;94.42
50380;BME280;37474;59.468;18.040;2022-07-23T08:35:29;100949.38;;;18.10;93.39
50380;BME280;37474;59.468;18.040;2022-07-23T08:38:03;100952.00;;;18.00;94.85
50380;BME280;37474;59.468;18.040;2022-07-23T08:40:33;100957.78;;;18.15;94.19
50380;BME280;37474;59.468;18.040;2022-07-23T08:43:10;100954.59;;;17.90;95.91
50380;BME280;37474;59.468;18.040;2022-07-23T08:45:40;100961.13;;;17.86;96.95
50380;BME280;37474;59.468;18.040;2022-07-23T08:48:12;100953.69;;;17.59;96.10
50380;BME280;37474;59.468;18.040;2022-07-23T08:50:43;100958.25;;;17.37;99.71
50380;BME280;37474;59.468;18.040;2022-07-23T08:53:15;100965.94;;;17.40;97.64
50380;BME280;37474;59.468;18.040;2022-07-23T08:55:44;100962.84;;;17.55;97.20
50380;BME280;37474;59.468;18.040;2022-07-23T08:58:15;100965.78;;;17.73;96.10
50380;BME280;37474;59.468;18.040;2022-07-23T09:00:45;100977.13;;;17.43;99.61
50380;BME280;37474;59.468;18.040;2022-07-23T09:03:16;100981.06;;;17.49;98.86
50380;BME280;37474;59.468;18.040;2022-07-23T09:05:49;100979.31;;;17.38;99.32
50380;BME280;37474;59.468;18.040;2022-07-23T09:08:19;100971.75;;;17.33;100.00
50380;BME280;37474;59.468;18.040;2022-07-23T09:10:53;100983.41;;;17.63;99.17
50380;BME280;37474;59.468;18.040;2022-07-23T09:13:27;100979.72;;;17.54;97.95
50380;BME280;37474;59.468;18.040;2022-07-23T09:16:01;100977.97;;;17.64;97.35
50380;BME280;37474;59.468;18.040;2022-07-23T09:18:31;100978.50;;;17.79;94.84
50380;BME280;37474;59.468;18.040;2022-07-23T09:21:20;100982.91;;;17.90;97.58
50380;BME280;37474;59.468;18.040;2022-07-23T09:23:53;100983.78;;;17.58;96.08
50380;BME280;37474;59.468;18.040;2022-07-23T09:26:29;100985.59;;;17.58;99.68
50380;BME280;37474;59.468;18.040;2022-07-23T09:29:06;100979.97;;;17.93;99.83
50380;BME280;37474;59.468;18.040;2022-07-23T09:31:47;100976.47;;;18.13;96.37
50380;BME280;37474;59.468;18.040;2022-07-23T09:34:18;100978.34;;;18.22;93.89
50380;BME280;37474;59.468;18.040;2022-07-23T09:36:51;100982.66;;;18.23;94.61
50380;BME280;37474;59.468;18.040;2022-07-23T09:39:25;100986.38;;;17.90;92.77
50380;BME280;37474;59.468;18.040;2022-07-23T09:42:12;100974.47;;;18.06;94.85
50380;BME280;37474;59.468;18.040;2022-07-23T09:44:42;100986.66;;;18.39;91.54
50380;BME280;37474;59.468;18.040;2022-07-23T09:47:13;100991.38;;;18.35;91.03
50380;BME280;37474;59.468;18.040;2022-07-23T09:49:57;100998.00;;;18.20;91.78
50380;BME280;37474;59.468;18.040;2022-07-23T09:52:28;100997.06;;;17.79;95.89
50380;BME280;37474;59.468;18.040;2022-07-23T09:55:04;100993.94;;;17.53;99.41
50380;BME280;37474;59.468;18.040;2022-07-23T09:57:37;100996.63;;;17.42;100.00
50380;BME280;37474;59.468;18.040;2022-07-23T10:00:09;100996.19;;;17.58;100.00
50380;BME280;37474;59.468;18.040;2022-07-23T10:02:38;100997.63;;;18.04;94.71
50380;BME280;37474;59.468;18.040;2022-07-23T10:05:07;101002.06;;;18.54;89.64
50380;BME280;37474;59.468;18.040;2022-07-23T10:07:37;100994.19;;;18.43;89.62
50380;BME280;37474;59.468;18.040;2022-07-23T10:10:13;101000.47;;;18.12;89.82
50380;BME280;37474;59.468;18.040;2022-07-23T10:12:43;101004.00;;;18.22;89.62
50380;BME280;37474;59.468;18.040;2022-07-23T10:15:32;100999.56;;;18.02;89.68
50380;BME280;37474;59.468;18.040;2022-07-23T10:18:00;101002.03;;;17.93;92.47
50380;BME280;37474;59.468;18.040;2022-07-23T10:20:28;101004.41;;;17.55;95.86
50380;BME280;37474;59.468;18.040;2022-07-23T10:23:06;101008.84;;;17.54;99.13
50380;BME280;37474;59.468;18.040;2022-07-23T10:25:42;101010.75;;;17.31;100.00
50380;BME280;37474;59.468;18.040;2022-07-23T10:28:28;101017.28;;;17.16;100.00
50380;BME280;37474;59.468;18.040;2022-07-23T10:31:04;101023.06;;;17.10;100.00
50380;BME280;37474;59.468;18.040;2022-07-23T10:34:02;101016.19;;;17.19;100.00
50380;BME280;37474;59.468;18.040;2022-07-23T10:36:42;101023.31;;;17.07;99.07
50380;BME280;37474;59.468;18.040;2022-07-23T10:39:20;101034.66;;;16.87;100.00
50380;BME280;37474;59.468;18.040;2022-07-23T10:41:51;101029.09;;;17.01;100.00
50380;BME280;37474;59.468;18.040;2022-07-23T10:44:21;101027.91;;;17.05;100.00
50380;BME280;37474;59.468;18.040;2022-07-23T10:46:54;101027.78;;;17.07;100.00
50380;BME280;37474;59.468;18.040;2022-07-23T10:49:32;101026.72;;;16.98;100.00
50380;BME280;37474;59.468;18.040;2022-07-23T10:52:21;101022.38;;;16.97;100.00
50380;BME280;37474;59.468;18.040;2022-07-23T10:54:52;101036.84;;;16.82;100.00
50380;BME280;37474;59.468;18.040;2022-07-23T10:57:22;101030.22;;;16.65;100.00
50380;BME280;37474;59.468;18.040;2022-07-23T11:00:21;101017.50;;;16.59;100.00
50380;BME280;37474;59.468;18.040;2022-07-23T11:02:51;101029.03;;;16.69;100.00
50380;BME280;37474;59.468;18.040;2022-07-23T11:05:23;101023.47;;;16.83;100.00
50380;BME280;37474;59.468;18.040;2022-07-23T11:08:18;101025.97;;;17.07;100.00
50380;BME280;37474;59.468;18.040;2022-07-23T11:10:52;101024.06;;;16.98;100.00
50380;BME280;37474;59.468;18.040;2022-07-23T11:13:46;101019.69;;;17.19;100.00
50380;BME280;37474;59.468;18.040;2022-07-23T11:16:17;101021.41;;;17.09;99.10
50380;BME280;37474;59.468;18.040;2022-07-23T11:19:06;101026.94;;;17.06;100.00
50380;BME280;37474;59.468;18.040;2022-07-23T11:21:45;101031.75;;;17.01;100.00
50380;BME280;37474;59.468;18.040;2022-07-23T11:24:21;101025.59;;;17.12;97.51
50380;BME280;37474;59.468;18.040;2022-07-23T11:26:53;101030.78;;;17.02;100.00
50380;BME280;37474;59.468;18.040;2022-07-23T11:29:50;101029.09;;;17.01;100.00
50380;BME280;37474;59.468;18.040;2022-07-23T11:32:39;101040.66;;;16.89;100.00
50380;BME280;37474;59.468;18.040;2022-07-23T11:35:25;101045.00;;;16.90;100.00
50380;BME280;37474;59.468;18.040;2022-07-23T11:38:04;101040.19;;;16.84;100.00
50380;BME280;37474;59.468;18.040;2022-07-23T11:40:32;101050.06;;;16.93;100.00
50380;BME280;37474;59.468;18.040;2022-07-23T11:43:04;101044.16;;;16.89;100.00
50380;BME280;37474;59.468;18.040;2022-07-23T11:45:37;101044.53;;;16.74;99.80
50380;BME280;37474;59.468;18.040;2022-07-23T11:48:09;101048.00;;;16.74;100.00
50380;BME280;37474;59.468;18.040;2022-07-23T11:50:39;101037.16;;;17.11;95.79
50380;BME280;37474;59.468;18.040;2022-07-23T11:53:07;101033.25;;;17.26;95.07
50380;BME280;37474;59.468;18.040;2022-07-23T11:55:35;101032.09;;;17.51;92.81
50380;BME280;37474;59.468;18.040;2022-07-23T11:58:05;101032.94;;;17.51;91.41
50380;BME280;37474;59.468;18.040;2022-07-23T12:00:33;101024.53;;;17.99;89.60
50380;BME280;37474;59.468;18.040;2022-07-23T12:03:10;101025.03;;;18.14;86.60
50380;BME280;37474;59.468;18.040;2022-07-23T12:05:40;101022.78;;;17.88;87.35
50380;BME280;37474;59.468;18.040;2022-07-23T12:08:09;101019.41;;;17.86;87.53
50380;BME280;37474;59.468;18.040;2022-07-23T12:10:40;101027.56;;;17.42;90.07
50380;BME280;37474;59.468;18.040;2022-07-23T12:13:12;101023.59;;;17.36;92.12
50380;BME280;37474;59.468;18.040;2022-07-23T12:15:42;101022.94;;;17.23;92.02
50380;BME280;37474;59.468;18.040;2022-07-23T12:18:13;101020.28;;;17.23;92.91
50380;BME280;37474;59.468;18.040;2022-07-23T12:20:43;101023.22;;;17.41;91.58
50380;BME280;37474;59.468;18.040;2022-07-23T12:23:14;101021.94;;;17.67;91.92
50380;BME280;37474;59.468;18.040;2022-07-23T12:25:49;101022.84;;;17.77;88.68
50380;BME280;37474;59.468;18.040;2022-07-23T12:28:21;101023.75;;;17.87;88.09
50380;BME280;37474;59.468;18.040;2022-07-23T12:30:50;101017.44;;;18.30;87.51
50380;BME280;37474;59.468;18.040;2022-07-23T12:33:25;101031.03;;;18.37;83.51
50380;BME280;37474;59.468;18.040;2022-07-23T12:35:57;101029.81;;;18.20;85.83
50380;BME280;37474;59.468;18.040;2022-07-23T12:38:28;101036.00;;;18.30;84.30
50380;BME280;37474;59.468;18.040;2022-07-23T12:41:00;101021.69;;;18.12;85.50
50380;BME280;37474;59.468;18.040;2022-07-23T12:43:31;101029.19;;;18.07;83.11
50380;BME280;37474;59.468;18.040;2022-07-23T12:46:03;101031.56;;;17.89;84.88
50380;BME280;37474;59.468;18.040;2022-07-23T12:48:34;101030.06;;;18.17;82.70
50380;BME280;37474;59.468;18.040;2022-07-23T12:51:06;101034.78;;;18.34;83.15
50380;BME280;37474;59.468;18.040;2022-07-23T12:53:38;101032.97;;;18.35;82.50